地図

経路データ

SID SEASON NUMBER BASIN SUBBASIN NAME ISO_TIME NATURE LAT LON WMO_WIND WMO_PRES WMO_AGENCY TRACK_TYPE DIST2LAND LANDFALL IFLAG USA_AGENCY USA_ATCF_ID USA_LAT USA_LON USA_RECORD USA_STATUS USA_WIND USA_PRES USA_SSHS USA_R34_NE USA_R34_SE USA_R34_SW USA_R34_NW USA_R50_NE USA_R50_SE USA_R50_SW USA_R50_NW USA_R64_NE USA_R64_SE USA_R64_SW USA_R64_NW USA_POCI USA_ROCI USA_RMW USA_EYE TOKYO_LAT TOKYO_LON TOKYO_GRADE TOKYO_WIND TOKYO_PRES TOKYO_R50_DIR TOKYO_R50_LONG TOKYO_R50_SHORT TOKYO_R30_DIR TOKYO_R30_LONG TOKYO_R30_SHORT TOKYO_LAND CMA_LAT CMA_LON CMA_CAT CMA_WIND CMA_PRES HKO_LAT HKO_LON HKO_CAT HKO_WIND HKO_PRES NEWDELHI_LAT NEWDELHI_LON NEWDELHI_GRADE NEWDELHI_WIND NEWDELHI_PRES NEWDELHI_CI NEWDELHI_DP NEWDELHI_POCI REUNION_LAT REUNION_LON REUNION_TYPE REUNION_WIND REUNION_PRES REUNION_TNUM REUNION_CI REUNION_RMW REUNION_R34_NE REUNION_R34_SE REUNION_R34_SW REUNION_R34_NW REUNION_R50_NE REUNION_R50_SE REUNION_R50_SW REUNION_R50_NW REUNION_R64_NE REUNION_R64_SE REUNION_R64_SW REUNION_R64_NW BOM_LAT BOM_LON BOM_TYPE BOM_WIND BOM_PRES BOM_TNUM BOM_CI BOM_RMW BOM_R34_NE BOM_R34_SE BOM_R34_SW BOM_R34_NW BOM_R50_NE BOM_R50_SE BOM_R50_SW BOM_R50_NW BOM_R64_NE BOM_R64_SE BOM_R64_SW BOM_R64_NW BOM_ROCI BOM_POCI BOM_EYE BOM_POS_METHOD BOM_PRES_METHOD NADI_LAT NADI_LON NADI_CAT NADI_WIND NADI_PRES WELLINGTON_LAT WELLINGTON_LON WELLINGTON_WIND WELLINGTON_PRES DS824_LAT DS824_LON DS824_STAGE DS824_WIND DS824_PRES TD9636_LAT TD9636_LON TD9636_STAGE TD9636_WIND TD9636_PRES TD9635_LAT TD9635_LON TD9635_WIND TD9635_PRES TD9635_ROCI NEUMANN_LAT NEUMANN_LON NEUMANN_CLASS NEUMANN_WIND NEUMANN_PRES MLC_LAT MLC_LON MLC_CLASS MLC_WIND MLC_PRES USA_GUST BOM_GUST BOM_GUST_PER REUNION_GUST REUNION_GUST_PER USA_SEAHGT USA_SEARAD_NE USA_SEARAD_SE USA_SEARAD_SW USA_SEARAD_NW STORM_SPEED STORM_DIR
1962008S14115 1962 2 SI WA NOT_NAMED 1962-01-08 11:00:00 NR -14.0000 114.900 main 582 582 __________O___ -1 -14.0000 114.900 1 0 0
1962008S14115 1962 2 SI WA NOT_NAMED 1962-01-08 12:00:00 TS -13.9948 114.897 main 582 582 _________OP___ -1 -14.0000 114.900 TC -13.9922 114.895 1 1 0
1962008S14115 1962 2 SI WA NOT_NAMED 1962-01-08 15:00:00 TS -13.9563 114.885 main 582 571 _________PP___ -1 -13.9325 114.877 TC -13.9722 114.890 1 1 0
1962008S14115 1962 2 SI WA NOT_NAMED 1962-01-08 18:00:00 TS -13.9365 114.910 main 571 569 _________OP___ -1 -13.9000 114.900 TC -13.9638 114.917 1 1 88
1962008S14115 1962 2 SI WA NOT_NAMED 1962-01-08 21:00:00 TS -13.9518 115.003 main 580 577 _________PP___ -1 -13.9275 115.005 TC -13.9761 115.001 1 2 104
1962008S14115 1962 2 SI WA NOT_NAMED 1962-01-08 23:00:00 TS -13.9862 115.113 main 577 575 _________PO___ -1 -13.9723 115.125 TC -14.0000 115.100 1 4 108
1962008S14115 1962 2 SI WA NOT_NAMED 1962-01-09 00:00:00 TS -14.0088 115.183 main 575 572 _________OP___ -1 -14.0000 115.200 TC -14.0175 115.165 1 5 108
1962008S14115 1962 2 SI WA NOT_NAMED 1962-01-09 03:00:00 TS -14.0919 115.448 main 581 577 _________PP___ -1 -14.0926 115.485 TC -14.0912 115.412 1 6 109
1962008S14115 1962 2 SI WA NOT_NAMED 1962-01-09 06:00:00 TS -14.1956 115.753 main 585 583 _________OP___ -1 -14.2000 115.800 TC -14.1913 115.706 1 6 110
1962008S14115 1962 2 SI WA NOT_NAMED 1962-01-09 09:00:00 TS -14.2983 116.038 main 592 588 _________PP___ -1 -14.2850 116.065 TC -14.3116 116.010 1 6 112
1962008S14115 1962 2 SI WA NOT_NAMED 1962-01-09 11:00:00 TS -14.3776 116.213 main 599 598 _________PO___ -1 -14.3552 116.225 TC -14.4000 116.200 1 5 117
1962008S14115 1962 2 SI WA NOT_NAMED 1962-01-09 12:00:00 TS -14.4235 116.289 main 598 598 _________OP___ -1 -14.4000 116.300 TC -14.4469 116.278 1 5 128
1962008S14115 1962 2 SI WA NOT_NAMED 1962-01-09 15:00:00 TS -14.6002 116.502 main 617 617 _________PP___ -1 -14.6000 116.507 TC -14.6003 116.496 1 5 132
1962008S14115 1962 2 SI WA NOT_NAMED 1962-01-09 18:00:00 TS -14.7803 116.697 main 627 623 _________OP___ -1 -14.8000 116.700 TC -14.7605 116.694 1 5 129
1962008S14115 1962 2 SI WA NOT_NAMED 1962-01-09 21:00:00 TS -14.9134 116.894 main 626 612 _________PP___ -1 -14.9150 116.908 TC -14.9118 116.880 1 4 123
1962008S14115 1962 2 SI WA NOT_NAMED 1962-01-09 23:00:00 TS -14.9860 117.020 main 612 602 _________PO___ -1 -14.9719 117.039 TC -15.0000 117.000 1 4 119
1962008S14115 1962 2 SI WA NOT_NAMED 1962-01-10 00:00:00 TS -15.0163 117.081 main 602 588 _________OP___ -1 -15.0000 117.100 TC -15.0326 117.063 1 4 119
1962008S14115 1962 2 SI WA NOT_NAMED 1962-01-10 03:00:00 TS -15.1101 117.248 main 588 563 _________PP___ -1 -15.1075 117.250 TC -15.1128 117.247 1 4 119
1962008S14115 1962 2 SI WA NOT_NAMED 1962-01-10 06:00:00 TS -15.1894 117.412 main 563 544 _________OP___ -1 -15.2000 117.400 TC -15.1789 117.423 1 4 112
1962008S14115 1962 2 SI WA NOT_NAMED 1962-01-10 09:00:00 TS -15.2445 117.600 main 544 529 _________PP___ -1 -15.2425 117.608 TC -15.2464 117.592 1 4 108
1962008S14115 1962 2 SI WA NOT_NAMED 1962-01-10 11:00:00 TS -15.2873 117.721 main 529 520 _________PO___ -1 -15.2746 117.742 TC -15.3000 117.700 1 4 114
1962008S14115 1962 2 SI WA NOT_NAMED 1962-01-10 12:00:00 TS -15.3168 117.775 main 520 505 _________OP___ -1 -15.3000 117.800 TC -15.3337 117.751 1 3 132
1962008S14115 1962 2 SI WA NOT_NAMED 1962-01-10 15:00:00 TS -15.4439 117.899 main 505 486 _________PP___ -1 -15.4424 117.900 TC -15.4453 117.897 1 4 138
1962008S14115 1962 2 SI WA NOT_NAMED 1962-01-10 18:00:00 TS -15.5852 118.020 main 486 462 _________OP___ -1 -15.6000 118.000 TC -15.5703 118.041 1 4 132
1962008S14115 1962 2 SI WA NOT_NAMED 1962-01-10 21:00:00 TS -15.6991 118.188 main 462 448 _________PP___ -1 -15.6925 118.185 TC -15.7056 118.191 1 4 124
1962008S14115 1962 2 SI WA NOT_NAMED 1962-01-10 23:00:00 TS -15.7789 118.314 main 448 438 _________PO___ -1 -15.7579 118.328 TC -15.8000 118.300 1 4 124
1962008S14115 1962 2 SI WA NOT_NAMED 1962-01-11 00:00:00 TS -15.8239 118.381 main 438 410 _________OP___ -1 -15.8000 118.400 TC -15.8479 118.361 1 5 131
1962008S14115 1962 2 SI WA NOT_NAMED 1962-01-11 03:00:00 TS -15.9988 118.578 main 410 382 _________PP___ -1 -16.0000 118.600 TC -15.9976 118.556 1 5 133
1962008S14115 1962 2 SI WA NOT_NAMED 1962-01-11 06:00:00 TS -16.1757 118.781 main 382 358 _________OP___ -1 -16.2000 118.800 TC -16.1514 118.761 1 5 128
1962008S14115 1962 2 SI WA NOT_NAMED 1962-01-11 09:00:00 TS -16.3053 118.987 main 358 345 _________PP___ -1 -16.3075 119.008 TC -16.3031 118.967 1 5 123
1962008S14115 1962 2 SI WA NOT_NAMED 1962-01-11 11:00:00 TS -16.3831 119.120 main 345 334 _________PO___ -1 -16.3662 119.139 TC -16.4000 119.100 1 4 123
1962008S14115 1962 2 SI WA NOT_NAMED 1962-01-11 12:00:00 TS -16.4237 119.182 main 334 317 _________OP___ -1 -16.4000 119.200 TC -16.4475 119.164 1 4 129
1962008S14115 1962 2 SI WA NOT_NAMED 1962-01-11 15:00:00 TS -16.5677 119.355 main 308 294 _________PP___ -1 -16.5500 119.358 TC -16.5854 119.352 1 4 132
1962008S14115 1962 2 SI WA NOT_NAMED 1962-01-11 18:00:00 TS -16.7071 119.515 main 294 270 _________OP___ -1 -16.7000 119.500 TC -16.7142 119.531 1 4 129
1962008S14115 1962 2 SI WA NOT_NAMED 1962-01-11 21:00:00 TS -16.8191 119.674 main 270 256 _________PP___ -1 -16.8075 119.650 TC -16.8307 119.697 1 4 126
1962008S14115 1962 2 SI WA NOT_NAMED 1962-01-11 23:00:00 TS -16.8846 119.775 main 256 256 _________PO___ -1 -16.8693 119.750 TC -16.9000 119.800 2 3 124
1962008S14115 1962 2 SI WA NOT_NAMED 1962-01-12 00:00:00 TS -16.9146 119.825 main 256 232 _________OP___ -1 -16.9000 119.800 TC -16.9292 119.850 2 3 123
1962008S14115 1962 2 SI WA NOT_NAMED 1962-01-12 03:00:00 TS -17.0062 119.973 main 232 219 _________PP___ -1 -17.0075 119.957 TC -17.0049 119.988 2 3 123
1962008S14115 1962 2 SI WA NOT_NAMED 1962-01-12 06:00:00 TS -17.0861 120.107 main 219 209 _________OP___ -1 -17.1000 120.100 TC -17.0722 120.113 2 3 120
1962008S14115 1962 2 SI WA NOT_NAMED 1962-01-12 09:00:00 TS -17.1431 120.218 main 209 196 _________PP___ -1 -17.1425 120.208 TC -17.1438 120.228 2 2 120
1962008S14115 1962 2 SI WA NOT_NAMED 1962-01-12 11:00:00 TS -17.1873 120.285 main 196 196 _________PO___ -1 -17.1745 120.269 TC -17.2000 120.300 2 2 130
1962008S14115 1962 2 SI WA NOT_NAMED 1962-01-12 12:00:00 TS -17.2156 120.310 main 196 183 _________OP___ -1 -17.2000 120.300 TC -17.2311 120.320 2 3 149
1962008S14115 1962 2 SI WA NOT_NAMED 1962-01-12 15:00:00 TS -17.3345 120.379 main 183 170 _________PP___ -1 -17.3350 120.393 TC -17.3340 120.366 2 3 150
1962008S14115 1962 2 SI WA NOT_NAMED 1962-01-12 18:00:00 TS -17.4769 120.465 main 170 159 _________OP___ -1 -17.5000 120.500 TC -17.4538 120.429 2 3 146
1962008S14115 1962 2 SI WA NOT_NAMED 1962-01-12 21:00:00 TS -17.6181 120.577 main 159 145 _________PP___ -1 -17.6423 120.598 TC -17.5938 120.557 2 4 137
1962008S14115 1962 2 SI WA NOT_NAMED 1962-01-12 23:00:00 TS -17.7221 120.707 main 145 130 _________PO___ -1 -17.7442 120.713 TC -17.7000 120.700 1 5 127
1962008S14115 1962 2 SI WA NOT_NAMED 1962-01-13 00:00:00 TS -17.7796 120.803 main 130 84 _________OP___ -1 -17.8000 120.800 TC -17.7593 120.805 1 8 118
1962008S14115 1962 2 SI WA NOT_NAMED 1962-01-13 03:00:00 TS -17.9736 121.202 main 84 30 _________PP___ -1 -17.9926 121.205 TC -17.9546 121.200 1 9 116
1962008S14115 1962 2 SI WA NOT_NAMED 1962-01-13 06:00:00 TS -18.1818 121.686 main 30 0 _________OP___ -1 -18.2000 121.700 TC -18.1636 121.673 1 10 115
1962008S14115 1962 2 SI WA NOT_NAMED 1962-01-13 09:00:00 TS -18.3890 122.162 main 0 0 _________PP___ -1 -18.4074 122.150 TC -18.3706 122.174 1 10 114
1962008S14115 1962 2 SI WA NOT_NAMED 1962-01-13 11:00:00 TS -18.5195 122.475 main 0 0 _________PO___ -1 -18.5390 122.450 TC -18.5000 122.500 1 10 114
1962008S14115 1962 2 SI WA NOT_NAMED 1962-01-13 12:00:00 TS -18.5795 122.623 main 0 0 _________OP___ -1 -18.6000 122.600 TC -18.5591 122.646 1 9 112
1962008S14115 1962 2 SI WA NOT_NAMED 1962-01-13 15:00:00 TS -18.7458 123.071 main 0 0 _________PP___ -1 -18.7650 123.065 TC -18.7265 123.076 1 9 111
1962008S14115 1962 2 SI WA NOT_NAMED 1962-01-13 18:00:00 TS -18.8895 123.493 main 0 0 _________OP___ -1 -18.9000 123.500 TC -18.8791 123.487 1 8 109
1962008S14115 1962 2 SI WA NOT_NAMED 1962-01-13 21:00:00 TS -19.0120 123.870 main 0 0 _________PP___ -1 -19.0074 123.873 TC -19.0166 123.867 1 7 109
1962008S14115 1962 2 SI WA NOT_NAMED 1962-01-13 23:00:00 TS -19.0846 124.097 main 0 0 _________PO___ -1 -19.0692 124.094 TC -19.1000 124.100 1 7 109
1962008S14115 1962 2 SI WA NOT_NAMED 1962-01-14 00:00:00 TS -19.1199 124.205 main 0 0 _________OP___ -1 -19.1000 124.200 TC -19.1399 124.210 1 6 110
1962008S14115 1962 2 SI WA NOT_NAMED 1962-01-14 03:00:00 TS -19.2243 124.514 main 0 0 _________PP___ -1 -19.1999 124.515 TC -19.2487 124.512 1 6 110
1962008S14115 1962 2 SI WA NOT_NAMED 1962-01-14 06:00:00 TS -19.3231 124.792 main 0 0 _________OP___ -1 -19.3000 124.800 TC -19.3461 124.783 1 5 111
1962008S14115 1962 2 SI WA NOT_NAMED 1962-01-14 09:00:00 TS -19.4191 125.047 main 0 0 _________PP___ -1 -19.3999 125.058 TC -19.4384 125.036 1 5 112
1962008S14115 1962 2 SI WA NOT_NAMED 1962-01-14 11:00:00 TS -19.4833 125.210 main 0 0 _________PO___ -1 -19.4666 125.219 TC -19.5000 125.200 1 5 113
1962008S14115 1962 2 SI WA NOT_NAMED 1962-01-14 12:00:00 TS -19.5185 125.297 main 0 0 _________OP___ -1 -19.5000 125.300 TC -19.5370 125.294 1 5 113
1962008S14115 1962 2 SI WA NOT_NAMED 1962-01-14 15:00:00 TS -19.6248 125.562 main 0 0 _________PP___ -1 -19.6000 125.550 TC -19.6497 125.574 1 5 113
1962008S14115 1962 2 SI WA NOT_NAMED 1962-01-14 18:00:00 TS -19.7287 125.819 main 0 0 _________OP___ -1 -19.7000 125.800 TC -19.7573 125.838 1 5 113
1962008S14115 1962 2 SI WA NOT_NAMED 1962-01-14 21:00:00 TS -19.8290 126.071 main 0 0 _________PP___ -1 -19.8075 126.072 TC -19.8505 126.070 1 5 113
1962008S14115 1962 2 SI WA NOT_NAMED 1962-01-14 23:00:00 TS -19.8862 126.217 main 0 0 _________PO___ -1 -19.8724 126.234 TC -19.9000 126.200 1 4 112
1962008S14115 1962 2 SI WA NOT_NAMED 1962-01-15 00:00:00 TS -19.9085 126.276 main 0 0 _________OP___ -1 -19.9000 126.300 TC -19.9171 126.251 1 3 113
1962008S14115 1962 2 SI WA NOT_NAMED 1962-01-15 03:00:00 TS -19.9581 126.400 main 0 0 _________PP___ -1 -19.9649 126.430 TC -19.9513 126.370 1 2 112
1962008S14115 1962 2 SI WA NOT_NAMED 1962-01-15 06:00:00 TS -19.9850 126.479 main 0 0 _________OP___ -1 -20.0000 126.500 TC -19.9699 126.457 1 1 105
1962008S14115 1962 2 SI WA NOT_NAMED 1962-01-15 09:00:00 TS -19.9927 126.540 main 0 0 _________PP___ -1 -20.0000 126.543 TC -19.9854 126.538 1 1 97
1962008S14115 1962 2 SI WA NOT_NAMED 1962-01-15 11:00:00 TS -19.9984 126.587 main 0 0 _________PO___ -1 -19.9969 126.575 TC -20.0000 126.600 1 2 99
1962008S14115 1962 2 SI WA NOT_NAMED 1962-01-15 12:00:00 TS -20.0057 126.621 main 0 0 _________OP___ -1 -20.0000 126.600 TC -20.0099 126.636 1 2 107
1962008S14115 1962 2 SI WA NOT_NAMED 1962-01-15 15:00:00 TS -20.0456 126.753 main 0 0 _________PP___ -1 -20.0376 126.727 TC -20.0496 126.765 1 3 109
1962008S14115 1962 2 SI WA NOT_NAMED 1962-01-15 18:00:00 TS -20.1007 126.913 main 0 0 _________OP___ -1 -20.1000 126.900 TC -20.1009 126.918 1 3 110
1962008S14115 1962 2 SI WA NOT_NAMED 1962-01-15 21:00:00 NR -20.1593 127.085 main 0 0 __________P___ -1 TC -20.1593 127.085 1 3 110
1962008S14115 1962 2 SI WA NOT_NAMED 1962-01-15 23:00:00 NR -20.2000 127.200 main 0 __________O___ -1 TC -20.2000 127.200 1 3 111

IBTrACS Databaseについて

本データベースは、米国NOAAが公開する1842年以降の世界の熱帯低気圧のベストトラックデータアーカイブInternational Best Track Archive for Climate Stewardship (IBTrACS)を、ウェブで閲覧しやすい形式に変換したものです。

最終更新日:2021-12-06